createdAt,value
2022-11-25T00:02:02.359Z,60.30
2022-11-25T00:04:37.091Z,44.80
2022-11-25T00:07:07.521Z,50.45
2022-11-25T00:09:37.261Z,51.05
2022-11-25T00:12:06.309Z,48.90
2022-11-25T00:14:34.284Z,57.88
2022-11-25T00:17:02.876Z,56.08
2022-11-25T00:19:31.206Z,53.33
2022-11-25T00:22:00.292Z,47.55
2022-11-25T00:24:27.545Z,62.28
2022-11-25T00:26:55.850Z,53.45
2022-11-25T00:29:24.323Z,58.33
2022-11-25T00:31:52.684Z,57.95
2022-11-25T00:34:20.812Z,60.80
2022-11-25T00:36:49.333Z,54.78
2022-11-25T00:39:27.149Z,60.85
2022-11-25T00:42:14.554Z,52.72
2022-11-25T00:47:29.591Z,58.92
2022-11-25T00:49:57.747Z,57.78
2022-11-25T00:52:30.919Z,59.22
2022-11-25T00:54:59.695Z,61.55
2022-11-25T00:57:30.386Z,60.30
2022-11-25T00:59:59.225Z,69.78
2022-11-25T01:02:26.580Z,65.53
2022-11-25T01:04:56.555Z,58.25
2022-11-25T01:07:26.801Z,66.10
2022-11-25T01:09:57.097Z,61.55
2022-11-25T01:12:26.326Z,55.97
2022-11-25T01:14:56.127Z,54.58
2022-11-25T01:17:25.762Z,62.00
2022-11-25T01:20:00.261Z,57.95
2022-11-25T01:22:29.889Z,57.92
2022-11-25T01:24:59.628Z,54.80
2022-11-25T01:27:29.473Z,57.13
2022-11-25T01:29:59.148Z,59.58
2022-11-25T01:32:28.972Z,56.88
2022-11-25T01:34:58.727Z,56.22
2022-11-25T01:37:28.441Z,60.35
2022-11-25T01:39:58.170Z,59.03
2022-11-25T01:42:31.214Z,65.82
2022-11-25T01:45:28.670Z,63.38
2022-11-25T01:48:15.880Z,59.92
2022-11-25T01:51:25.752Z,65.18
2022-11-25T01:54:09.283Z,67.03
2022-11-25T04:57:15.909Z,54.67
2022-11-25T04:59:48.641Z,58.83
2022-11-25T05:14:54.796Z,61.65
2022-11-25T05:20:31.709Z,53.53
2022-11-25T05:23:01.930Z,54.97
2022-11-25T05:25:32.125Z,57.03
2022-11-25T05:28:03.885Z,57.35
2022-11-25T05:30:34.150Z,59.58
2022-11-25T05:33:04.325Z,58.75
2022-11-25T05:35:34.372Z,53.53
2022-11-25T05:38:04.393Z,56.95
2022-11-25T05:40:34.489Z,66.78
2022-11-25T05:43:04.903Z,57.05
2022-11-25T05:45:35.079Z,58.00
2022-11-25T05:48:11.129Z,49.40
2022-11-25T05:50:41.256Z,56.97
2022-11-25T05:53:11.557Z,52.60
2022-11-25T05:55:41.577Z,62.90
2022-11-25T05:58:11.594Z,51.55
2022-11-25T06:00:43.991Z,50.08
2022-11-25T06:03:14.237Z,44.88
2022-11-25T06:05:45.603Z,57.13
2022-11-25T06:08:15.592Z,47.70
2022-11-25T06:10:48.579Z,42.85
2022-11-25T06:13:20.517Z,51.90
2022-11-25T06:15:50.588Z,47.58
2022-11-25T06:18:20.644Z,56.75
2022-11-25T06:20:59.076Z,44.78
2022-11-25T06:23:29.273Z,41.65
2022-11-25T06:26:20.028Z,48.70
2022-11-25T06:28:55.913Z,48.75
2022-11-25T06:31:27.271Z,48.60
2022-11-25T06:33:57.468Z,47.28
2022-11-25T06:36:27.581Z,35.08
2022-11-25T06:39:11.484Z,36.38
2022-11-25T06:41:40.505Z,41.72
2022-11-25T06:44:08.874Z,41.65
2022-11-25T06:46:37.362Z,36.83
2022-11-25T06:49:05.924Z,45.58
2022-11-25T06:51:34.109Z,46.90
2022-11-25T06:54:02.542Z,40.83
2022-11-25T06:56:30.983Z,40.60
2022-11-25T06:58:59.337Z,42.92
2022-11-25T07:01:31.023Z,40.22
2022-11-25T07:04:17.789Z,36.83
2022-11-25T07:06:50.696Z,44.67
2022-11-25T07:09:22.457Z,38.13
2022-11-25T07:11:52.487Z,45.00
2022-11-25T07:14:22.592Z,40.53
2022-11-25T07:16:52.632Z,41.35
2022-11-25T07:19:22.828Z,41.25
2022-11-25T07:21:53.033Z,38.85
2022-11-25T07:24:35.625Z,43.45
2022-11-25T07:27:06.988Z,40.53
2022-11-25T07:29:57.879Z,38.35
2022-11-25T07:32:45.317Z,37.33
2022-11-25T07:35:15.513Z,43.05
2022-11-25T07:37:45.802Z,48.17
2022-11-25T07:40:15.971Z,37.28
2022-11-25T07:42:45.998Z,52.15
2022-11-25T07:45:16.193Z,55.10
2022-11-25T07:47:46.255Z,49.05
2022-11-25T07:50:16.390Z,50.35
2022-11-25T07:52:46.401Z,49.58
2022-11-25T07:55:16.575Z,45.97
2022-11-25T07:57:46.654Z,47.60
2022-11-25T08:00:17.481Z,43.65
2022-11-25T08:02:47.517Z,41.50
2022-11-25T08:05:17.608Z,45.05
2022-11-25T08:07:47.644Z,52.42
2022-11-25T08:10:16.192Z,51.25
2022-11-25T08:12:44.440Z,50.38
2022-11-25T08:15:12.936Z,52.15
2022-11-25T08:17:41.308Z,52.28
2022-11-25T08:20:10.253Z,52.50
2022-11-25T08:22:38.129Z,43.35
2022-11-25T08:25:07.463Z,42.92
2022-11-25T08:27:34.992Z,38.47
2022-11-25T08:30:04.050Z,42.30
2022-11-25T08:32:31.827Z,38.90
2022-11-25T08:35:00.455Z,44.47
2022-11-25T08:37:32.082Z,42.40
2022-11-25T08:40:00.781Z,40.30
2022-11-25T08:42:28.585Z,34.28
2022-11-25T08:44:57.344Z,38.40
2022-11-25T08:47:26.115Z,37.28
2022-11-25T08:49:55.417Z,38.95
2022-11-25T08:52:25.640Z,46.30
2022-11-25T08:54:55.666Z,44.80
2022-11-25T08:57:25.672Z,37.97
2022-11-25T08:59:55.700Z,34.83
2022-11-25T09:02:25.910Z,36.22
2022-11-25T09:04:55.954Z,35.55
2022-11-25T09:07:30.528Z,39.25
2022-11-25T09:10:00.928Z,36.60
2022-11-25T09:12:30.950Z,39.25
2022-11-25T09:14:59.358Z,40.15
2022-11-25T09:17:27.761Z,42.88
2022-11-25T09:19:56.153Z,41.67
2022-11-25T09:22:24.920Z,36.78
2022-11-25T09:24:52.964Z,35.47
2022-11-25T09:27:21.389Z,41.78
2022-11-25T09:29:49.914Z,40.05
2022-11-25T09:32:18.257Z,34.97
2022-11-25T09:34:46.658Z,36.83
2022-11-25T09:37:15.572Z,42.25
2022-11-25T09:39:43.484Z,37.95
2022-11-25T09:42:52.407Z,37.70
2022-11-25T09:45:57.116Z,31.60
2022-11-25T09:49:31.999Z,38.08
2022-11-25T09:52:48.232Z,42.10
2022-11-25T09:55:25.798Z,43.65
2022-11-25T09:58:49.779Z,36.65
2022-11-25T10:01:28.659Z,38.70
2022-11-25T10:05:01.751Z,33.50
2022-11-25T10:07:46.783Z,37.78
2022-11-25T10:10:53.215Z,40.72
2022-11-25T10:14:23.368Z,40.00
2022-11-25T10:17:04.934Z,38.78
2022-11-25T10:20:08.028Z,39.55
2022-11-25T10:22:50.427Z,40.63
2022-11-25T10:25:47.173Z,35.20
2022-11-25T10:28:17.490Z,37.38
2022-11-25T10:31:00.681Z,30.05
2022-11-25T10:33:54.788Z,35.50
2022-11-25T10:36:34.816Z,33.75
2022-11-25T10:39:24.528Z,31.48
2022-11-25T10:42:12.107Z,31.67
2022-11-25T10:44:42.705Z,28.88
2022-11-25T10:48:14.120Z,38.70
2022-11-25T10:50:59.072Z,35.33
2022-11-25T10:53:32.014Z,33.13
2022-11-25T10:56:17.142Z,30.08
2022-11-25T10:58:47.243Z,28.42
2022-11-25T11:05:31.671Z,27.00
2022-11-25T11:08:25.055Z,29.88
2022-11-25T11:11:23.628Z,32.47
2022-11-25T11:14:20.932Z,35.75
2022-11-25T11:16:57.373Z,30.42
2022-11-25T11:19:31.967Z,27.52
2022-11-25T11:22:18.179Z,30.85
2022-11-25T11:24:48.252Z,28.35
2022-11-25T11:27:25.910Z,31.60
2022-11-25T11:30:21.327Z,33.80
2022-11-25T11:33:25.448Z,35.65
2022-11-25T11:36:17.785Z,28.25
2022-11-25T11:39:01.325Z,32.63
2022-11-25T11:42:00.920Z,34.75
2022-11-25T11:45:23.967Z,32.88
2022-11-25T11:48:21.042Z,32.70
2022-11-25T11:51:36.249Z,33.75
2022-11-25T11:54:37.053Z,37.95
2022-11-25T11:57:44.771Z,35.00
2022-11-25T12:00:20.353Z,32.70
2022-11-25T12:03:13.241Z,34.97
2022-11-25T12:05:41.643Z,31.40
2022-11-25T12:08:59.147Z,36.10
2022-11-25T12:11:43.155Z,33.58
2022-11-25T12:14:48.134Z,30.58
2022-11-25T12:17:46.786Z,34.85
2022-11-25T12:20:41.100Z,33.00
2022-11-25T12:24:04.720Z,41.60
2022-11-25T12:27:23.316Z,44.38
2022-11-25T12:30:16.402Z,43.60
2022-11-25T12:33:28.089Z,44.78
2022-11-25T12:36:30.659Z,45.92
2022-11-25T12:39:20.320Z,49.95
2022-11-25T12:42:21.093Z,47.13
2022-11-25T12:45:20.258Z,45.85
2022-11-25T12:47:52.070Z,46.78
2022-11-25T12:51:20.632Z,49.03
2022-11-25T12:54:47.431Z,47.13
2022-11-25T12:58:01.220Z,50.95
2022-11-25T13:01:33.024Z,42.60
2022-11-25T13:04:28.392Z,44.22
2022-11-25T13:07:38.324Z,50.70
2022-11-25T13:10:46.779Z,47.47
2022-11-25T13:13:39.094Z,42.08
2022-11-25T13:16:12.104Z,40.83
2022-11-25T13:18:46.639Z,40.55
2022-11-25T13:21:19.883Z,38.15
2022-11-25T13:23:58.887Z,39.53
2022-11-25T13:26:28.940Z,39.83
2022-11-25T13:29:11.963Z,38.28
2022-11-25T13:32:34.154Z,39.30
2022-11-25T13:35:32.159Z,40.20
2022-11-25T13:38:27.701Z,42.00
2022-11-25T13:41:20.975Z,39.22
2022-11-25T13:43:54.032Z,37.47
2022-11-25T13:46:52.388Z,40.95
2022-11-25T13:49:55.205Z,38.20
2022-11-25T13:52:42.565Z,35.47
2022-11-25T13:55:18.601Z,39.55
2022-11-25T13:58:12.143Z,39.97
2022-11-25T14:01:30.958Z,39.15
2022-11-25T14:04:09.425Z,42.80
2022-11-25T14:07:17.083Z,40.40
2022-11-25T14:10:39.262Z,41.15
2022-11-25T14:13:47.016Z,39.15
2022-11-25T14:17:25.491Z,43.95
2022-11-25T14:20:46.240Z,39.83
2022-11-25T14:23:58.058Z,42.92
2022-11-25T14:26:49.374Z,43.25
2022-11-25T14:29:32.080Z,46.83
2022-11-25T14:32:23.453Z,51.00
2022-11-25T14:35:16.231Z,52.83
2022-11-25T14:38:19.649Z,46.00
2022-11-25T14:41:07.215Z,44.55
2022-11-25T14:43:52.022Z,48.00
2022-11-25T14:46:25.654Z,39.45
2022-11-25T14:48:59.811Z,49.97
2022-11-25T14:51:39.193Z,49.97
2022-11-25T14:54:10.853Z,48.60
2022-11-25T14:56:41.954Z,39.70
2022-11-25T14:59:12.982Z,44.58
2022-11-25T15:01:55.640Z,43.03
2022-11-25T15:04:26.572Z,48.92
2022-11-25T15:07:02.360Z,50.05
2022-11-25T15:09:42.887Z,47.65
2022-11-25T15:12:22.469Z,45.55
2022-11-25T15:14:57.276Z,46.25
2022-11-25T15:17:39.356Z,43.35
2022-11-25T15:20:19.914Z,41.28
2022-11-25T15:22:54.011Z,45.45
2022-11-25T15:25:24.128Z,45.58
2022-11-25T15:27:54.064Z,46.13
2022-11-25T15:30:29.535Z,47.63
2022-11-25T15:33:01.386Z,43.80
2022-11-25T15:35:31.615Z,52.08
2022-11-25T15:38:39.023Z,50.72
2022-11-25T15:41:37.071Z,43.60
2022-11-25T15:44:07.720Z,45.95
2022-11-25T15:46:38.498Z,46.22
2022-11-25T15:49:19.543Z,44.05
2022-11-25T15:51:55.502Z,45.40
2022-11-25T15:54:45.707Z,47.13
2022-11-25T15:57:36.416Z,44.28
2022-11-25T16:02:45.785Z,46.17
2022-11-25T16:05:14.181Z,46.92
2022-11-25T16:07:51.825Z,45.53
2022-11-25T16:10:41.809Z,49.38
2022-11-25T16:13:24.012Z,47.63
2022-11-25T16:16:07.353Z,52.42
2022-11-25T16:19:12.953Z,45.97
2022-11-25T16:22:00.297Z,51.05
2022-11-25T16:25:00.425Z,45.67
2022-11-25T16:27:38.964Z,40.70
2022-11-25T16:30:20.780Z,49.25
2022-11-25T16:32:50.835Z,42.95
2022-11-25T16:35:22.351Z,43.97
2022-11-25T16:37:50.126Z,43.70
2022-11-25T16:40:20.293Z,42.33
2022-11-25T16:42:53.443Z,46.60
2022-11-25T16:45:29.862Z,46.53
2022-11-25T16:47:58.745Z,42.50
2022-11-25T16:50:28.307Z,46.53
2022-11-25T16:52:58.182Z,46.67
2022-11-25T16:55:28.258Z,51.70
2022-11-25T16:57:58.620Z,39.40
2022-11-25T17:00:26.688Z,41.47
2022-11-25T17:02:56.727Z,46.42
2022-11-25T17:05:26.978Z,49.38
2022-11-25T17:07:55.206Z,47.63
2022-11-25T17:10:27.744Z,43.70
2022-11-25T17:12:57.235Z,45.63
2022-11-25T17:15:38.320Z,42.15
2022-11-25T17:18:11.065Z,50.58
2022-11-25T17:20:39.204Z,49.88
2022-11-25T17:23:16.161Z,45.25
2022-11-25T17:25:50.469Z,48.92
2022-11-25T17:28:21.902Z,47.78
2022-11-25T17:30:52.045Z,44.83
2022-11-25T17:33:22.403Z,44.03
2022-11-25T17:35:52.398Z,38.40
2022-11-25T17:38:22.606Z,44.97
2022-11-25T17:40:50.819Z,39.83
2022-11-25T17:43:22.006Z,46.05
2022-11-25T17:45:50.825Z,38.05
2022-11-25T17:48:20.569Z,42.30
2022-11-25T17:50:50.430Z,45.13
2022-11-25T17:53:20.043Z,47.22
2022-11-25T17:55:51.452Z,45.65
2022-11-25T17:58:20.721Z,41.85
2022-11-25T18:00:50.129Z,46.70
2022-11-25T18:03:20.018Z,38.65
2022-11-25T18:05:49.779Z,39.33
2022-11-25T18:08:19.493Z,41.67
2022-11-25T18:10:49.232Z,45.70
2022-11-25T18:13:19.086Z,39.97
2022-11-25T18:15:49.151Z,41.17
2022-11-25T18:18:25.702Z,31.95
2022-11-25T18:20:55.936Z,44.58
2022-11-25T18:23:24.180Z,37.10
2022-11-25T18:26:01.170Z,35.33
2022-11-25T18:28:33.170Z,40.50
2022-11-25T18:31:06.743Z,36.65
2022-11-25T18:33:35.013Z,40.80
2022-11-25T18:37:05.011Z,42.00
2022-11-25T18:39:35.058Z,44.47
2022-11-25T18:42:27.447Z,48.13
2022-11-25T18:44:57.497Z,45.55
2022-11-25T18:47:26.700Z,44.63
2022-11-25T18:49:56.796Z,35.15
2022-11-25T18:52:26.866Z,38.13
2022-11-25T18:54:56.784Z,39.15
2022-11-25T18:59:00.434Z,36.13
2022-11-25T19:01:31.382Z,41.00
2022-11-25T19:04:01.181Z,38.22
2022-11-25T19:06:31.778Z,42.83
2022-11-25T19:09:03.508Z,39.22
2022-11-25T19:11:41.726Z,34.05
2022-11-25T19:14:42.131Z,36.47
2022-11-25T19:17:24.432Z,35.28
2022-11-25T19:19:54.605Z,34.65
2022-11-25T19:22:24.993Z,38.65
2022-11-25T19:24:56.737Z,37.75
2022-11-25T19:27:51.140Z,31.27
2022-11-25T19:30:28.208Z,38.63
2022-11-25T19:33:28.444Z,42.15
2022-11-25T19:35:59.120Z,39.67
2022-11-25T19:38:31.064Z,33.58
2022-11-25T19:41:01.646Z,40.40
2022-11-25T19:43:29.170Z,32.95
2022-11-25T19:45:58.973Z,34.28
2022-11-25T19:48:39.052Z,32.45
2022-11-25T19:51:10.904Z,44.40
2022-11-25T19:53:41.047Z,33.22
2022-11-25T19:56:23.868Z,35.58
2022-11-25T19:58:55.317Z,37.85
2022-11-25T20:01:46.786Z,53.53
2022-11-25T20:04:22.355Z,46.70
2022-11-25T21:01:31.356Z,29.48
2022-11-25T21:04:01.445Z,33.55
2022-11-25T21:06:40.613Z,34.60
2022-11-25T21:09:24.940Z,32.72
2022-11-25T21:11:54.929Z,30.08
2022-11-25T21:14:24.976Z,27.10
2022-11-25T21:16:55.034Z,29.40
2022-11-25T21:19:25.125Z,29.77
2022-11-25T21:21:55.222Z,34.25
2022-11-25T21:24:35.018Z,32.55
2022-11-25T21:27:15.413Z,27.17
2022-11-25T21:29:46.439Z,30.67
2022-11-25T21:32:27.809Z,29.92
2022-11-25T21:34:58.240Z,26.83
2022-11-25T21:37:38.010Z,31.33
2022-11-25T21:40:41.058Z,29.55
2022-11-25T21:43:28.517Z,27.65
2022-11-25T21:46:11.055Z,36.55
2022-11-25T21:48:41.645Z,28.10
2022-11-25T21:51:21.782Z,28.23
2022-11-25T21:53:54.288Z,24.75
2022-11-25T21:56:34.047Z,24.48
2022-11-25T21:59:14.646Z,28.40
2022-11-25T22:01:45.587Z,26.90
2022-11-25T22:04:20.988Z,30.25
2022-11-25T22:06:51.571Z,24.92
2022-11-25T22:09:20.632Z,28.63
2022-11-25T22:11:50.700Z,23.08
2022-11-25T22:14:34.638Z,27.77
2022-11-25T22:17:16.868Z,28.42
2022-11-25T22:19:47.416Z,29.52
2022-11-25T22:22:18.987Z,25.88
2022-11-25T22:24:49.195Z,23.10
2022-11-25T22:27:28.602Z,29.50
2022-11-25T22:29:58.684Z,22.77
2022-11-25T22:32:27.117Z,26.05
2022-11-25T22:34:55.442Z,29.48
2022-11-25T22:37:25.140Z,26.55
2022-11-25T22:39:52.964Z,32.72
2022-11-25T22:42:30.992Z,27.83
2022-11-25T22:45:07.028Z,32.63
2022-11-25T22:47:45.247Z,31.73
2022-11-25T22:50:24.625Z,28.05
2022-11-25T22:52:56.873Z,31.38
2022-11-25T22:55:32.715Z,31.88
2022-11-25T22:58:04.707Z,30.83
2022-11-25T23:00:46.428Z,31.02
2022-11-25T23:03:29.692Z,28.70
2022-11-25T23:05:57.857Z,32.45
2022-11-25T23:08:31.894Z,31.08
2022-11-25T23:11:03.479Z,25.65
2022-11-25T23:13:53.030Z,29.90
2022-11-25T23:16:29.219Z,28.48
2022-11-25T23:18:59.450Z,29.80
2022-11-25T23:21:42.900Z,31.50
2022-11-25T23:24:17.792Z,32.15
2022-11-25T23:27:40.176Z,35.78
2022-11-25T23:30:22.100Z,34.83
2022-11-25T23:32:54.592Z,41.25
2022-11-25T23:35:37.835Z,37.88
2022-11-25T23:38:21.378Z,44.55
2022-11-25T23:40:49.185Z,39.60
2022-11-25T23:43:19.564Z,40.00
2022-11-25T23:45:57.060Z,46.53
2022-11-25T23:48:32.030Z,45.25
2022-11-25T23:51:02.366Z,51.38
2022-11-25T23:53:41.250Z,53.38
2022-11-25T23:56:08.623Z,49.10
